KTPA/TPA METAR and TAF weather

Enter ICAO airport designator
Station Type Date Time Source
KTPA METAR 2021/05/14 13:53 UTC NOAA

KTPA 141353Z 01010G16KT 10SM FEW250 23/14 A3015 RMK AO2 SLP208 T02330144


Station Type Date Time Source
KTPA Decoded METAR 2021/05/14 13:53 UTC NOAA

TAMPA INTERNATIONAL AIRPORT , FL, United States (KTPA) 27-58N 082-32W 11M
May 14, 2021 - 09:53 AM EDT / 2021.05.14 1353 UTC
Wind: from the N (010 degrees) at 12 MPH (10 KT) gusting to 18 MPH (16 KT):0
Visibility: 10 mile(s):0
Sky conditions: mostly clear
Temperature: 73.9 F (23.3 C)
Dew Point: 57.9 F (14.4 C)
Relative Humidity: 57%
Pressure (altimeter): 30.15 in. Hg (1020 hPa)
ob: KTPA 141353Z 01010G16KT 10SM FEW250 23/14 A3015 RMK AO2 SLP208 T02330144
cycle: 14

Station Type Date Time Source
KTPA TAF 2021/05/14 12:36 UTC NOAA

TAF KTPA 141133Z 1412/1518 02007KT P6SM FEW030 BKN250
FM142000 36012G18KT P6SM SCT250
FM150200 04009KT P6SM SCT250
FM150600 02006KT P6SM SCT250

Example: see airport list